createdAt,value
2018-11-07T00:01:46.617Z,61.90
2018-11-07T00:04:16.405Z,60.63
2018-11-07T00:06:46.306Z,61.10
2018-11-07T00:09:16.209Z,60.73
2018-11-07T00:11:46.025Z,59.07
2018-11-07T00:14:15.873Z,59.87
2018-11-07T00:16:45.666Z,60.13
2018-11-07T00:19:15.485Z,59.83
2018-11-07T00:21:45.215Z,61.23
2018-11-07T00:24:14.974Z,58.83
2018-11-07T00:26:44.821Z,60.70
2018-11-07T00:29:14.672Z,59.13
2018-11-07T00:31:44.496Z,58.63
2018-11-07T00:34:14.461Z,58.47
2018-11-07T00:36:44.356Z,59.10
2018-11-07T00:39:14.200Z,60.70
2018-11-07T00:41:43.999Z,58.67
2018-11-07T00:44:13.901Z,59.23
2018-11-07T00:46:43.715Z,57.93
2018-11-07T00:49:13.549Z,58.93
2018-11-07T00:51:43.457Z,59.73
2018-11-07T00:54:13.325Z,58.37
2018-11-07T00:56:43.239Z,56.77
2018-11-07T00:59:13.152Z,55.53
2018-11-07T01:01:42.963Z,57.73
2018-11-07T01:04:12.828Z,58.03
2018-11-07T01:06:42.698Z,56.57
2018-11-07T01:09:13.484Z,58.57
2018-11-07T01:11:43.862Z,58.50
2018-11-07T01:14:13.701Z,57.80
2018-11-07T01:16:43.570Z,58.70
2018-11-07T01:19:13.404Z,58.00
2018-11-07T01:21:43.240Z,56.83
2018-11-07T01:24:13.053Z,56.00
2018-11-07T01:26:43.452Z,57.80
2018-11-07T01:29:13.273Z,56.43
2018-11-07T01:31:43.206Z,56.40
2018-11-07T01:34:13.511Z,56.10
2018-11-07T01:36:43.293Z,53.60
2018-11-07T01:39:13.182Z,53.83
2018-11-07T01:41:43.025Z,52.03
2018-11-07T01:44:12.878Z,51.13
2018-11-07T01:46:42.754Z,52.50
2018-11-07T01:49:12.648Z,52.70
2018-11-07T01:51:42.509Z,53.10
2018-11-07T01:54:12.336Z,51.20
2018-11-07T01:56:42.245Z,52.77
2018-11-07T01:59:12.109Z,53.67
2018-11-07T02:01:42.009Z,52.50
2018-11-07T02:04:11.840Z,53.20
2018-11-07T02:06:41.670Z,53.90
2018-11-07T02:09:11.563Z,53.03
2018-11-07T02:11:41.428Z,51.03
2018-11-07T02:14:11.223Z,53.07
2018-11-07T02:16:41.008Z,54.53
2018-11-07T02:19:10.874Z,54.47
2018-11-07T02:21:40.690Z,56.40
2018-11-07T02:24:10.562Z,58.93
2018-11-07T02:26:40.460Z,58.40
2018-11-07T02:29:13.336Z,56.80
2018-11-07T02:31:45.235Z,56.93
2018-11-07T02:34:15.835Z,57.73
2018-11-07T02:36:45.731Z,58.53
2018-11-07T02:39:16.106Z,57.93
2018-11-07T02:41:46.007Z,58.07
2018-11-07T02:44:15.905Z,60.53
2018-11-07T02:46:45.844Z,59.27
2018-11-07T02:49:15.737Z,58.30
2018-11-07T02:51:45.509Z,55.63
2018-11-07T02:54:15.379Z,58.00
2018-11-07T02:56:45.206Z,57.20
2018-11-07T02:59:15.065Z,57.57
2018-11-07T03:01:44.810Z,57.97
2018-11-07T03:04:14.624Z,57.67
2018-11-07T03:06:44.476Z,56.47
2018-11-07T03:09:14.344Z,59.70
2018-11-07T03:11:44.165Z,58.73
2018-11-07T03:14:14.053Z,61.50
2018-11-07T03:16:43.874Z,58.40
2018-11-07T03:19:13.659Z,58.40
2018-11-07T03:21:43.522Z,56.17
2018-11-07T03:24:13.425Z,55.43
2018-11-07T03:26:43.277Z,56.30
2018-11-07T03:29:13.169Z,56.77
2018-11-07T03:31:42.977Z,57.77
2018-11-07T03:34:12.724Z,57.50
2018-11-07T03:36:42.547Z,57.27
2018-11-07T03:39:12.645Z,57.17
2018-11-07T03:41:42.515Z,56.90
2018-11-07T03:44:12.250Z,57.63
2018-11-07T03:46:42.085Z,57.97
2018-11-07T03:49:11.890Z,57.73
2018-11-07T03:51:41.753Z,57.97
2018-11-07T03:54:11.665Z,56.50
2018-11-07T03:56:41.497Z,57.23
2018-11-07T03:59:11.358Z,57.27
2018-11-07T04:01:41.241Z,58.87
2018-11-07T04:04:11.107Z,58.87
2018-11-07T04:06:40.999Z,57.70
2018-11-07T04:09:12.595Z,58.90
2018-11-07T04:11:43.326Z,57.90
2018-11-07T04:14:13.309Z,60.53
2018-11-07T04:16:43.172Z,59.60
2018-11-07T04:19:12.954Z,57.63
2018-11-07T04:21:42.842Z,56.47
2018-11-07T04:24:12.684Z,56.73
2018-11-07T04:26:42.570Z,55.57
2018-11-07T04:29:12.509Z,56.97
2018-11-07T04:31:42.333Z,56.77
2018-11-07T04:34:12.289Z,55.43
2018-11-07T04:36:42.185Z,54.73
2018-11-07T04:39:12.126Z,56.03
2018-11-07T04:41:42.059Z,56.17
2018-11-07T04:44:11.899Z,55.57
2018-11-07T04:46:41.798Z,54.93
2018-11-07T04:49:11.579Z,56.47
2018-11-07T04:51:41.507Z,55.30
2018-11-07T04:54:11.271Z,56.10
2018-11-07T04:56:41.091Z,55.63
2018-11-07T04:59:10.918Z,56.37
2018-11-07T05:01:40.821Z,55.67
2018-11-07T05:04:10.600Z,56.73
2018-11-07T05:06:40.484Z,56.53
2018-11-07T05:09:10.624Z,57.70
2018-11-07T05:11:40.523Z,58.57
2018-11-07T05:14:10.404Z,68.23
2018-11-07T05:16:40.290Z,83.90
2018-11-07T05:19:10.147Z,64.43
2018-11-07T05:21:39.966Z,63.60
2018-11-07T05:24:09.674Z,62.47
2018-11-07T05:26:39.622Z,64.63
2018-11-07T05:29:09.507Z,65.37
2018-11-07T05:31:39.377Z,64.60
2018-11-07T05:34:09.231Z,63.77
2018-11-07T05:36:39.130Z,65.87
2018-11-07T05:39:10.034Z,94.87
2018-11-07T05:41:39.938Z,63.93
2018-11-07T05:44:09.796Z,66.07
2018-11-07T05:46:39.531Z,64.10
2018-11-07T05:49:09.431Z,64.13
2018-11-07T05:51:39.341Z,64.03
2018-11-07T05:54:09.205Z,64.43
2018-11-07T05:56:39.121Z,62.70
2018-11-07T05:59:08.990Z,65.03
2018-11-07T06:01:38.988Z,63.40
2018-11-07T06:04:09.464Z,58.77
2018-11-07T06:06:39.324Z,59.00
2018-11-07T06:09:09.262Z,56.97
2018-11-07T06:11:39.088Z,58.67
2018-11-07T06:14:09.417Z,57.60
2018-11-07T06:16:39.291Z,58.87
2018-11-07T06:19:09.145Z,59.07
2018-11-07T06:21:38.983Z,57.03
2018-11-07T06:24:08.924Z,55.73
2018-11-07T06:26:38.874Z,58.43
2018-11-07T06:29:08.886Z,57.73
2018-11-07T06:31:38.884Z,56.40
2018-11-07T06:34:09.014Z,56.93
2018-11-07T06:36:38.826Z,58.67
2018-11-07T06:39:10.103Z,56.53
2018-11-07T06:41:40.021Z,55.77
2018-11-07T06:44:09.941Z,53.43
2018-11-07T06:46:39.896Z,51.30
2018-11-07T06:49:09.729Z,50.90
2018-11-07T06:51:39.539Z,52.53
2018-11-07T06:54:09.279Z,66.30
2018-11-07T06:56:39.198Z,58.03
2018-11-07T06:59:09.306Z,50.30
2018-11-07T07:01:39.091Z,49.33
2018-11-07T07:04:08.991Z,47.90
2018-11-07T07:06:38.949Z,50.03
2018-11-07T07:09:09.691Z,49.27
2018-11-07T07:11:39.955Z,48.97
2018-11-07T07:14:10.056Z,51.10
2018-11-07T07:16:40.023Z,49.50
2018-11-07T07:19:09.903Z,48.87
2018-11-07T07:21:39.794Z,46.93
2018-11-07T07:24:09.727Z,47.53
2018-11-07T07:26:39.594Z,46.93
2018-11-07T07:29:09.507Z,45.80
2018-11-07T07:31:39.465Z,47.07
2018-11-07T07:34:09.380Z,45.90
2018-11-07T07:36:39.323Z,45.10
2018-11-07T07:39:10.263Z,44.13
2018-11-07T07:41:40.237Z,44.10
2018-11-07T07:44:10.171Z,45.67
2018-11-07T07:46:40.204Z,44.03
2018-11-07T07:49:10.275Z,45.53
2018-11-07T07:51:40.152Z,46.70
2018-11-07T07:54:10.123Z,47.17
2018-11-07T07:56:40.093Z,48.23
2018-11-07T07:59:10.125Z,48.47
2018-11-07T08:01:40.020Z,47.40
2018-11-07T08:04:09.896Z,46.97
2018-11-07T08:06:39.892Z,46.93
2018-11-07T08:09:12.903Z,56.67
2018-11-07T08:11:42.838Z,44.43
2018-11-07T08:14:12.781Z,43.03
2018-11-07T08:16:43.760Z,42.23
2018-11-07T08:19:13.767Z,40.77
2018-11-07T08:21:43.748Z,40.17
2018-11-07T08:24:13.737Z,39.40
2018-11-07T08:26:43.648Z,37.90
2018-11-07T08:29:13.652Z,36.67
2018-11-07T08:31:43.618Z,36.60
2018-11-07T08:34:13.570Z,35.17
2018-11-07T08:36:43.560Z,33.47
2018-11-07T08:39:13.780Z,33.07
2018-11-07T08:41:43.751Z,33.73
2018-11-07T08:44:13.663Z,33.33
2018-11-07T08:46:43.798Z,32.00
2018-11-07T08:49:13.611Z,32.90
2018-11-07T08:51:43.548Z,31.90
2018-11-07T08:54:13.387Z,29.60
2018-11-07T08:56:43.318Z,31.10
2018-11-07T08:59:13.368Z,30.60
2018-11-07T09:01:43.314Z,30.40
2018-11-07T09:04:13.388Z,30.63
2018-11-07T09:06:43.275Z,29.37
2018-11-07T09:09:13.243Z,28.27
2018-11-07T09:11:43.139Z,28.10
2018-11-07T09:14:13.080Z,29.27
2018-11-07T09:16:43.159Z,28.17
2018-11-07T09:19:13.595Z,28.93
2018-11-07T09:21:43.688Z,28.63
2018-11-07T09:24:13.971Z,28.73
2018-11-07T09:26:44.307Z,27.13
2018-11-07T09:29:14.410Z,27.13
2018-11-07T09:31:44.229Z,26.53
2018-11-07T09:34:14.173Z,26.87
2018-11-07T09:36:44.087Z,27.63
2018-11-07T09:39:14.406Z,27.63
2018-11-07T09:41:44.408Z,25.90
2018-11-07T09:44:14.348Z,26.13
2018-11-07T09:46:44.303Z,26.93
2018-11-07T09:49:14.291Z,28.10
2018-11-07T09:51:44.235Z,27.40
2018-11-07T09:54:14.257Z,26.30
2018-11-07T09:56:44.161Z,26.70
2018-11-07T09:59:14.221Z,25.90
2018-11-07T10:01:44.142Z,27.63
2018-11-07T10:04:14.276Z,26.03
2018-11-07T10:06:44.373Z,25.43
2018-11-07T10:09:14.304Z,25.60
2018-11-07T10:11:44.295Z,24.70
2018-11-07T10:14:14.313Z,25.87
2018-11-07T10:16:44.227Z,26.40
2018-11-07T10:19:14.162Z,25.77
2018-11-07T10:21:44.150Z,24.13
2018-11-07T10:24:14.112Z,24.27
2018-11-07T10:26:44.146Z,23.30
2018-11-07T10:29:14.194Z,22.63
2018-11-07T10:31:43.988Z,23.73
2018-11-07T10:34:13.863Z,25.20
2018-11-07T10:36:43.872Z,24.37
2018-11-07T10:39:13.819Z,24.83
2018-11-07T10:41:43.709Z,24.90
2018-11-07T10:44:13.703Z,24.40
2018-11-07T10:46:43.639Z,24.60
2018-11-07T10:49:13.650Z,24.77
2018-11-07T10:51:43.683Z,24.27
2018-11-07T10:54:13.675Z,24.53
2018-11-07T10:56:43.637Z,23.20
2018-11-07T10:59:13.438Z,23.70
2018-11-07T11:01:48.444Z,22.20
2018-11-07T11:04:18.372Z,21.87
2018-11-07T11:06:48.244Z,23.03
2018-11-07T11:09:18.107Z,22.53
2018-11-07T11:11:47.967Z,23.20
2018-11-07T11:14:17.948Z,23.90
2018-11-07T11:16:47.944Z,24.13
2018-11-07T11:19:17.818Z,22.73
2018-11-07T11:21:47.832Z,23.63
2018-11-07T11:24:17.724Z,25.13
2018-11-07T11:26:47.714Z,23.77
2018-11-07T11:29:17.642Z,26.07
2018-11-07T11:31:47.543Z,24.33
2018-11-07T11:34:17.636Z,24.53
2018-11-07T11:36:47.425Z,24.83
2018-11-07T11:39:17.429Z,23.47
2018-11-07T11:41:47.386Z,21.93
2018-11-07T11:44:17.380Z,23.50
2018-11-07T11:46:47.335Z,24.23
2018-11-07T11:49:17.263Z,24.20
2018-11-07T11:51:47.133Z,24.33
2018-11-07T11:54:17.028Z,23.77
2018-11-07T11:56:47.006Z,24.17
2018-11-07T11:59:16.921Z,22.43
2018-11-07T12:01:46.882Z,22.57
2018-11-07T12:04:16.838Z,23.90
2018-11-07T12:06:46.823Z,23.40
2018-11-07T12:09:16.827Z,22.97
2018-11-07T12:11:46.715Z,23.23
2018-11-07T12:14:16.555Z,23.67
2018-11-07T12:16:46.442Z,22.47
2018-11-07T12:19:16.383Z,23.57
2018-11-07T12:21:46.369Z,23.57
2018-11-07T12:24:16.346Z,23.20
2018-11-07T12:26:46.192Z,24.23
2018-11-07T12:29:16.165Z,23.87
2018-11-07T12:31:46.109Z,24.47
2018-11-07T12:34:16.107Z,23.97
2018-11-07T12:36:45.975Z,23.90
2018-11-07T12:39:15.852Z,23.87
2018-11-07T12:41:45.756Z,24.13
2018-11-07T12:44:15.615Z,25.40
2018-11-07T12:46:45.470Z,24.63
2018-11-07T12:49:15.356Z,26.10
2018-11-07T12:51:45.279Z,26.83
2018-11-07T12:54:15.304Z,26.77
2018-11-07T12:56:45.119Z,35.67
2018-11-07T12:59:15.030Z,28.20
2018-11-07T13:01:44.812Z,27.60
2018-11-07T13:04:15.699Z,29.07
2018-11-07T13:06:45.574Z,29.43
2018-11-07T13:09:15.526Z,30.17
2018-11-07T13:11:45.442Z,30.90
2018-11-07T13:14:15.468Z,30.80
2018-11-07T13:16:45.572Z,31.03
2018-11-07T13:19:15.471Z,31.03
2018-11-07T13:21:45.404Z,30.53
2018-11-07T13:24:15.301Z,31.53
2018-11-07T13:26:45.169Z,32.47
2018-11-07T13:29:15.128Z,33.57
2018-11-07T13:31:45.187Z,31.70
2018-11-07T13:34:15.172Z,32.47
2018-11-07T13:36:45.065Z,33.20
2018-11-07T13:39:15.373Z,33.93
2018-11-07T13:41:44.883Z,32.67
2018-11-07T13:44:14.884Z,33.67
2018-11-07T13:46:44.739Z,32.90
2018-11-07T13:49:14.689Z,33.63
2018-11-07T13:51:44.569Z,33.67
2018-11-07T13:54:14.458Z,33.57
2018-11-07T13:56:44.300Z,32.30
2018-11-07T13:59:14.141Z,33.03
2018-11-07T14:01:44.004Z,34.10
2018-11-07T14:04:13.859Z,33.63
2018-11-07T14:06:43.727Z,32.27
2018-11-07T14:09:13.547Z,33.80
2018-11-07T14:11:43.458Z,33.80
2018-11-07T14:14:13.381Z,33.30
2018-11-07T14:16:43.296Z,34.23
2018-11-07T14:19:13.255Z,32.87
2018-11-07T14:21:43.205Z,31.83
2018-11-07T14:24:13.165Z,32.97
2018-11-07T14:26:43.115Z,32.30
2018-11-07T14:29:13.025Z,34.27
2018-11-07T14:31:42.996Z,33.40
2018-11-07T14:34:13.000Z,32.93
2018-11-07T14:36:42.965Z,32.53
2018-11-07T14:39:13.147Z,33.23
2018-11-07T14:41:43.001Z,31.13
2018-11-07T14:44:13.012Z,33.47
2018-11-07T14:46:43.032Z,33.80
2018-11-07T14:49:13.151Z,33.60
2018-11-07T14:51:43.045Z,34.03
2018-11-07T14:54:13.306Z,34.30
2018-11-07T14:56:43.339Z,34.90
2018-11-07T14:59:13.283Z,33.77
2018-11-07T15:01:43.293Z,33.87
2018-11-07T15:04:13.296Z,34.83
2018-11-07T15:06:43.367Z,35.63
2018-11-07T15:09:13.409Z,34.53
2018-11-07T15:11:43.425Z,34.20
2018-11-07T15:14:13.397Z,35.10
2018-11-07T15:16:43.333Z,34.03
2018-11-07T15:19:13.300Z,34.97
2018-11-07T15:21:43.311Z,34.83
2018-11-07T15:24:13.225Z,34.47
2018-11-07T15:26:43.223Z,34.37
2018-11-07T15:29:13.192Z,35.43
2018-11-07T15:31:43.200Z,36.03
2018-11-07T15:34:13.248Z,35.00
2018-11-07T15:36:43.260Z,36.10
2018-11-07T15:39:13.352Z,34.63
2018-11-07T15:41:43.719Z,32.73
2018-11-07T15:44:13.689Z,37.23
2018-11-07T15:46:43.660Z,35.23
2018-11-07T15:49:13.845Z,36.83
2018-11-07T15:51:43.800Z,37.20
2018-11-07T15:54:13.801Z,36.87
2018-11-07T15:56:43.792Z,38.07
2018-11-07T15:59:13.692Z,43.37
2018-11-07T16:01:43.715Z,45.83
2018-11-07T16:04:13.723Z,40.63
2018-11-07T16:06:43.625Z,41.67
2018-11-07T16:09:13.703Z,42.53
2018-11-07T16:11:43.708Z,41.10
2018-11-07T16:14:13.659Z,42.77
2018-11-07T16:16:43.740Z,46.33
2018-11-07T16:19:13.658Z,43.77
2018-11-07T16:21:43.658Z,43.40
2018-11-07T16:24:13.790Z,40.80
2018-11-07T16:26:43.763Z,41.77
2018-11-07T16:29:13.737Z,46.07
2018-11-07T16:31:43.719Z,46.20
2018-11-07T16:34:13.640Z,44.73
2018-11-07T16:36:43.735Z,46.43
2018-11-07T16:39:13.814Z,45.03
2018-11-07T16:41:44.040Z,44.17
2018-11-07T16:44:13.884Z,43.97
2018-11-07T16:46:43.764Z,45.00
2018-11-07T16:49:14.037Z,43.57
2018-11-07T16:51:43.997Z,43.67
2018-11-07T16:54:18.688Z,43.97
2018-11-07T16:56:49.646Z,42.50
2018-11-07T16:59:19.968Z,42.90
2018-11-07T17:01:49.819Z,42.17
2018-11-07T17:04:19.833Z,41.77
2018-11-07T17:06:49.738Z,43.33
2018-11-07T17:09:19.602Z,59.80
2018-11-07T17:11:49.598Z,53.57
2018-11-07T17:14:19.567Z,49.80
2018-11-07T17:16:49.627Z,48.30
2018-11-07T17:19:19.639Z,46.83
2018-11-07T17:21:49.724Z,48.40
2018-11-07T17:24:19.773Z,45.50
2018-11-07T17:26:49.560Z,45.13
2018-11-07T17:29:19.589Z,44.07
2018-11-07T17:31:49.547Z,43.23
2018-11-07T17:34:19.632Z,44.20
2018-11-07T17:36:49.691Z,44.77
2018-11-07T17:39:19.961Z,48.43
2018-11-07T17:41:49.881Z,47.57
2018-11-07T17:44:19.891Z,45.27
2018-11-07T17:46:49.785Z,44.40
2018-11-07T17:49:19.829Z,46.80
2018-11-07T17:51:49.910Z,47.53
2018-11-07T17:54:20.133Z,44.13
2018-11-07T17:56:50.150Z,44.93
2018-11-07T17:59:20.246Z,43.53
2018-11-07T18:01:50.377Z,43.03
2018-11-07T18:04:20.471Z,51.53
2018-11-07T18:06:50.620Z,55.13
2018-11-07T18:09:20.914Z,54.03
2018-11-07T18:11:51.156Z,45.00
2018-11-07T18:14:21.369Z,47.80
2018-11-07T18:16:51.505Z,44.10
2018-11-07T18:19:21.875Z,45.87
2018-11-07T18:21:52.186Z,46.03
2018-11-07T18:24:22.575Z,45.90
2018-11-07T18:26:52.921Z,52.13
2018-11-07T18:29:23.347Z,52.53
2018-11-07T18:31:53.692Z,47.87
2018-11-07T18:34:24.064Z,46.77
2018-11-07T18:36:54.552Z,47.27
2018-11-07T18:39:24.773Z,62.67
2018-11-07T18:41:55.055Z,56.80
2018-11-07T18:44:25.445Z,44.87
2018-11-07T18:46:55.678Z,43.57
2018-11-07T18:49:26.100Z,45.53
2018-11-07T18:51:57.589Z,46.70
2018-11-07T18:54:28.502Z,44.43
2018-11-07T18:56:58.890Z,46.37
2018-11-07T18:59:30.052Z,48.33
2018-11-07T19:02:01.725Z,49.00
2018-11-07T19:04:32.966Z,45.13
2018-11-07T19:07:03.310Z,48.57
2018-11-07T19:09:34.422Z,49.23
2018-11-07T19:12:04.881Z,47.73
2018-11-07T19:14:35.386Z,45.23
2018-11-07T19:17:05.783Z,45.53
2018-11-07T19:19:36.576Z,49.87
2018-11-07T19:22:07.042Z,48.03
2018-11-07T19:24:37.907Z,53.90
2018-11-07T19:27:08.587Z,63.33
2018-11-07T19:29:39.937Z,56.47
2018-11-07T19:32:10.874Z,55.87
2018-11-07T19:34:41.309Z,52.60
2018-11-07T19:37:11.737Z,50.30
2018-11-07T19:39:42.223Z,49.83
2018-11-07T19:42:12.745Z,50.07
2018-11-07T19:44:44.301Z,53.73
2018-11-07T19:47:15.347Z,51.70
2018-11-07T19:49:47.006Z,54.00
2018-11-07T19:52:17.816Z,57.37
2018-11-07T19:54:48.352Z,54.97
2018-11-07T19:57:18.840Z,54.00
2018-11-07T19:59:49.148Z,53.10
2018-11-07T20:02:19.569Z,51.77
2018-11-07T20:04:51.157Z,53.13
2018-11-07T20:07:22.125Z,53.10
2018-11-07T20:09:52.765Z,53.17
2018-11-07T20:12:24.750Z,53.93
2018-11-07T20:14:55.783Z,55.97
2018-11-07T20:17:26.271Z,55.00
2018-11-07T20:19:57.516Z,52.10
2018-11-07T20:22:28.826Z,51.03
2018-11-07T20:25:01.402Z,56.03
2018-11-07T20:27:32.142Z,55.10
2018-11-07T20:30:03.217Z,55.30
2018-11-07T20:32:33.934Z,53.87
2018-11-07T20:35:05.155Z,51.43
2018-11-07T20:37:36.418Z,52.10
2018-11-07T20:40:10.981Z,53.43
2018-11-07T20:42:41.439Z,53.10
2018-11-07T20:45:12.821Z,52.83
2018-11-07T20:47:44.390Z,51.50
2018-11-07T20:50:18.345Z,56.43
2018-11-07T20:52:49.799Z,55.10
2018-11-07T20:55:20.225Z,52.43
2018-11-07T20:57:51.774Z,54.83
2018-11-07T21:00:23.458Z,55.87
2018-11-07T21:02:53.955Z,53.50
2018-11-07T21:05:24.443Z,55.40
2018-11-07T21:07:54.912Z,53.17
2018-11-07T21:10:25.407Z,54.43
2018-11-07T21:12:55.702Z,53.20
2018-11-07T21:15:26.055Z,53.90
2018-11-07T21:17:56.277Z,54.73
2018-11-07T21:20:26.570Z,51.97
2018-11-07T21:22:56.900Z,51.67
2018-11-07T21:25:27.116Z,53.47
2018-11-07T21:27:57.371Z,54.20
2018-11-07T21:30:27.589Z,54.10
2018-11-07T21:32:57.856Z,55.43
2018-11-07T21:35:28.192Z,55.10
2018-11-07T21:37:58.424Z,53.23
2018-11-07T21:40:28.750Z,52.43
2018-11-07T21:42:58.873Z,53.13
2018-11-07T21:45:29.004Z,49.33
2018-11-07T21:47:58.975Z,53.07
2018-11-07T21:50:29.111Z,53.60
2018-11-07T21:52:59.004Z,52.50
2018-11-07T21:55:28.973Z,51.63
2018-11-07T21:57:58.883Z,53.17
2018-11-07T22:00:28.910Z,51.70
2018-11-07T22:02:58.874Z,51.60
2018-11-07T22:05:29.043Z,53.00
2018-11-07T22:07:58.909Z,53.13
2018-11-07T22:10:28.843Z,50.70
2018-11-07T22:12:58.661Z,52.10
2018-11-07T22:15:28.486Z,51.23
2018-11-07T22:17:59.029Z,51.30
2018-11-07T22:20:28.895Z,51.07
2018-11-07T22:22:58.788Z,51.87
2018-11-07T22:25:28.680Z,51.87
2018-11-07T22:27:58.482Z,52.83
2018-11-07T22:30:28.396Z,51.07
2018-11-07T22:32:58.171Z,54.53
2018-11-07T22:35:27.985Z,51.90
2018-11-07T22:37:57.797Z,52.53
2018-11-07T22:40:27.651Z,52.03
2018-11-07T22:42:57.557Z,51.80
2018-11-07T22:45:27.363Z,50.57
2018-11-07T22:47:57.194Z,51.73
2018-11-07T22:50:26.920Z,50.73
2018-11-07T22:52:56.626Z,52.50
2018-11-07T22:55:26.497Z,55.43
2018-11-07T22:57:56.337Z,51.67
2018-11-07T23:00:31.216Z,51.07
2018-11-07T23:03:00.986Z,47.87
2018-11-07T23:05:30.787Z,45.60
2018-11-07T23:08:00.556Z,43.70
2018-11-07T23:10:30.475Z,43.60
2018-11-07T23:13:00.368Z,44.13
2018-11-07T23:15:35.208Z,44.70
2018-11-07T23:18:05.301Z,44.50
2018-11-07T23:20:35.209Z,44.37
2018-11-07T23:23:05.211Z,44.67
2018-11-07T23:25:35.000Z,45.60
2018-11-07T23:28:04.857Z,48.43
2018-11-07T23:30:34.594Z,44.57
2018-11-07T23:33:04.425Z,43.70
2018-11-07T23:35:34.300Z,44.17
2018-11-07T23:38:04.229Z,43.27
2018-11-07T23:40:34.024Z,38.70
2018-11-07T23:43:04.025Z,37.47
2018-11-07T23:45:33.805Z,38.10
2018-11-07T23:48:03.658Z,39.53
2018-11-07T23:50:33.455Z,38.80
2018-11-07T23:53:03.211Z,39.30
2018-11-07T23:55:33.058Z,39.57
2018-11-07T23:58:02.873Z,40.23
